createdAt,value
2022-07-25T00:01:46.681Z,7.53
2022-07-25T00:04:14.376Z,8.00
2022-07-25T00:06:42.674Z,7.40
2022-07-25T00:09:10.044Z,6.93
2022-07-25T00:11:37.062Z,8.00
2022-07-25T00:14:05.156Z,8.27
2022-07-25T00:16:32.244Z,7.30
2022-07-25T00:18:59.060Z,7.07
2022-07-25T00:21:25.944Z,8.13
2022-07-25T00:23:52.631Z,8.10
2022-07-25T00:26:19.652Z,8.30
2022-07-25T00:28:46.335Z,8.40
2022-07-25T00:31:13.087Z,9.03
2022-07-25T00:33:40.269Z,7.63
2022-07-25T00:36:10.298Z,8.17
2022-07-25T00:38:37.163Z,8.43
2022-07-25T00:41:04.659Z,7.60
2022-07-25T00:43:32.253Z,7.63
2022-07-25T00:45:59.788Z,7.77
2022-07-25T00:48:28.808Z,7.70
2022-07-25T00:50:59.873Z,8.00
2022-07-25T00:53:26.688Z,7.13
2022-07-25T00:55:53.656Z,7.33
2022-07-25T00:58:20.451Z,7.50
2022-07-25T01:00:47.992Z,7.70
2022-07-25T01:03:15.843Z,7.77
2022-07-25T01:05:42.884Z,8.20
2022-07-25T01:08:09.831Z,8.23
2022-07-25T01:10:37.481Z,8.17
2022-07-25T01:13:04.764Z,7.87
2022-07-25T01:15:32.132Z,7.93
2022-07-25T01:17:59.003Z,7.80
2022-07-25T01:20:29.214Z,7.97
2022-07-25T01:22:56.622Z,8.17
2022-07-25T01:25:24.720Z,7.80
2022-07-25T01:27:55.928Z,7.90
2022-07-25T01:30:24.385Z,7.90
2022-07-25T01:32:51.516Z,7.90
2022-07-25T01:35:18.362Z,7.10
2022-07-25T01:37:45.438Z,7.50
2022-07-25T01:40:13.233Z,7.50
2022-07-25T01:42:39.970Z,8.20
2022-07-25T01:45:07.386Z,7.67
2022-07-25T01:47:34.050Z,7.20
2022-07-25T01:50:00.756Z,8.00
2022-07-25T01:52:27.480Z,7.23
2022-07-25T01:54:54.199Z,7.70
2022-07-25T01:57:21.476Z,7.37
2022-07-25T01:59:50.649Z,7.53
2022-07-25T02:02:17.316Z,6.97
2022-07-25T02:04:44.023Z,7.30
2022-07-25T02:07:10.828Z,8.00
2022-07-25T02:09:37.550Z,7.87
2022-07-25T02:12:04.517Z,8.20
2022-07-25T02:14:31.177Z,8.00
2022-07-25T02:16:57.990Z,7.40
2022-07-25T02:19:24.683Z,7.97
2022-07-25T02:21:51.579Z,7.20
2022-07-25T02:24:18.333Z,7.80
2022-07-25T02:26:44.996Z,7.73
2022-07-25T02:29:11.774Z,7.60
2022-07-25T02:31:38.481Z,7.60
2022-07-25T02:34:05.605Z,7.13
2022-07-25T02:36:32.557Z,7.50
2022-07-25T02:38:59.298Z,8.30
2022-07-25T02:41:25.972Z,7.70
2022-07-25T02:43:52.680Z,8.10
2022-07-25T02:46:19.434Z,7.40
2022-07-25T02:48:46.305Z,7.23
2022-07-25T02:51:13.585Z,7.73
2022-07-25T02:53:56.194Z,7.43
2022-07-25T02:56:23.706Z,8.03
2022-07-25T02:58:50.512Z,7.20
2022-07-25T03:01:17.279Z,7.00
2022-07-25T03:03:44.037Z,7.70
2022-07-25T03:06:10.736Z,7.47
2022-07-25T03:08:37.600Z,7.57
2022-07-25T03:11:04.598Z,8.37
2022-07-25T03:13:33.093Z,6.93
2022-07-25T03:16:00.011Z,7.83
2022-07-25T03:18:26.702Z,8.00
2022-07-25T03:20:53.432Z,7.63
2022-07-25T03:23:20.159Z,7.53
2022-07-25T03:25:46.825Z,8.20
2022-07-25T03:28:13.545Z,8.10
2022-07-25T03:30:40.461Z,7.40
2022-07-25T03:33:07.155Z,7.30
2022-07-25T03:35:33.825Z,7.80
2022-07-25T03:38:02.093Z,7.80
2022-07-25T03:40:28.846Z,7.63
2022-07-25T03:42:55.570Z,7.80
2022-07-25T03:45:22.341Z,7.10
2022-07-25T03:47:49.233Z,7.10
2022-07-25T03:50:16.232Z,7.50
2022-07-25T03:52:42.997Z,7.23
2022-07-25T03:55:11.144Z,7.47
2022-07-25T03:57:38.917Z,7.73
2022-07-25T04:00:07.964Z,8.60
2022-07-25T04:02:35.246Z,7.23
2022-07-25T04:05:01.976Z,6.83
2022-07-25T04:07:28.638Z,7.33
2022-07-25T04:09:55.914Z,7.60
2022-07-25T04:12:22.587Z,8.17
2022-07-25T04:14:49.331Z,6.97
2022-07-25T04:17:16.099Z,7.40
2022-07-25T04:19:42.826Z,6.93
2022-07-25T04:22:10.163Z,7.57
2022-07-25T04:24:37.402Z,8.00
2022-07-25T04:27:04.221Z,8.10
2022-07-25T04:29:30.925Z,7.20
2022-07-25T04:31:58.145Z,8.07
2022-07-25T04:34:25.024Z,8.27
2022-07-25T04:36:51.746Z,7.53
2022-07-25T04:39:18.452Z,7.10
2022-07-25T04:41:45.117Z,7.40
2022-07-25T04:44:11.837Z,7.23
2022-07-25T04:46:38.546Z,7.60
2022-07-25T04:49:05.343Z,6.77
2022-07-25T04:51:32.052Z,6.50
2022-07-25T04:53:58.741Z,7.10
2022-07-25T04:56:25.479Z,6.73
2022-07-25T04:58:52.165Z,7.33
2022-07-25T05:01:18.971Z,7.33
2022-07-25T05:03:50.141Z,6.33
2022-07-25T05:06:19.467Z,7.17
2022-07-25T05:08:46.380Z,6.47
2022-07-25T05:11:13.246Z,6.70
2022-07-25T05:13:39.965Z,6.47
2022-07-25T05:16:06.995Z,6.67
2022-07-25T05:18:34.828Z,6.50
2022-07-25T05:21:01.746Z,6.90
2022-07-25T05:23:28.449Z,6.60
2022-07-25T05:25:55.152Z,7.10
2022-07-25T05:28:21.842Z,6.93
2022-07-25T05:30:48.519Z,6.47
2022-07-25T05:33:15.280Z,7.10
2022-07-25T05:35:42.071Z,6.30
2022-07-25T05:38:08.738Z,6.77
2022-07-25T05:40:35.419Z,7.27
2022-07-25T05:43:03.566Z,6.87
2022-07-25T05:45:31.965Z,6.73
2022-07-25T05:47:58.665Z,6.43
2022-07-25T05:50:25.760Z,6.03
2022-07-25T05:52:52.449Z,6.60
2022-07-25T05:55:19.378Z,6.97
2022-07-25T05:57:46.073Z,5.90
2022-07-25T06:00:13.227Z,6.43
2022-07-25T06:02:40.096Z,8.07
2022-07-25T06:05:07.216Z,6.73
2022-07-25T06:07:33.882Z,6.80
2022-07-25T06:10:00.555Z,6.20
2022-07-25T06:12:27.252Z,7.50
2022-07-25T06:14:54.075Z,6.60
2022-07-25T06:17:20.971Z,7.10
2022-07-25T06:19:47.701Z,6.70
2022-07-25T06:22:14.741Z,6.10
2022-07-25T06:24:41.596Z,6.50
2022-07-25T06:27:08.713Z,6.90
2022-07-25T06:29:35.569Z,6.87
2022-07-25T06:32:02.543Z,6.50
2022-07-25T06:34:29.584Z,6.27
2022-07-25T06:36:57.587Z,7.07
2022-07-25T06:39:25.585Z,6.90
2022-07-25T06:41:52.329Z,7.27
2022-07-25T06:44:19.103Z,6.93
2022-07-25T06:46:45.834Z,6.87
2022-07-25T06:49:12.637Z,6.83
2022-07-25T06:51:39.401Z,6.20
2022-07-25T06:54:07.133Z,7.00
2022-07-25T06:56:34.557Z,6.97
2022-07-25T06:59:01.262Z,7.40
2022-07-25T07:01:28.164Z,6.70
2022-07-25T07:03:54.985Z,6.70
2022-07-25T07:06:21.774Z,7.30
2022-07-25T07:08:48.490Z,7.20
2022-07-25T07:11:16.629Z,6.03
2022-07-25T07:13:43.297Z,7.53
2022-07-25T07:16:10.149Z,6.47
2022-07-25T07:18:37.569Z,7.27
2022-07-25T07:21:05.553Z,6.93
2022-07-25T07:23:32.818Z,6.70
2022-07-25T07:25:59.899Z,6.30
2022-07-25T07:28:26.614Z,7.60
2022-07-25T07:33:40.213Z,6.40
2022-07-25T07:36:07.234Z,6.80
2022-07-25T07:38:34.478Z,6.43
2022-07-25T07:41:01.168Z,7.07
2022-07-25T07:43:30.435Z,6.67
2022-07-25T07:46:01.178Z,6.97
2022-07-25T07:48:31.931Z,7.03
2022-07-25T07:51:00.494Z,6.87
2022-07-25T07:53:47.997Z,7.30
2022-07-25T07:56:16.212Z,7.00
2022-07-25T07:58:43.211Z,7.17
2022-07-25T08:01:09.867Z,7.27
2022-07-25T08:03:36.557Z,7.23
2022-07-25T08:06:04.332Z,7.50
2022-07-25T08:08:31.832Z,7.33
2022-07-25T08:10:59.450Z,7.73
2022-07-25T08:13:30.443Z,7.50
2022-07-25T08:15:59.006Z,7.70
2022-07-25T08:18:29.760Z,7.33
2022-07-25T08:20:56.754Z,7.63
2022-07-25T08:23:25.227Z,7.10
2022-07-25T08:25:52.293Z,8.43
2022-07-25T08:28:19.335Z,7.80
2022-07-25T08:30:46.512Z,7.57
2022-07-25T08:33:15.957Z,7.13
2022-07-25T08:35:48.449Z,7.53
2022-07-25T08:38:15.346Z,7.23
2022-07-25T08:40:42.012Z,7.70
2022-07-25T08:43:12.896Z,7.37
2022-07-25T08:45:48.226Z,7.37
2022-07-25T08:48:18.142Z,7.83
2022-07-25T08:50:45.816Z,7.90
2022-07-25T08:53:32.823Z,8.13
2022-07-25T08:56:00.813Z,7.83
2022-07-25T08:58:27.498Z,7.43
2022-07-25T09:00:54.152Z,7.13
2022-07-25T09:03:20.915Z,6.90
2022-07-25T09:05:47.840Z,7.83
2022-07-25T09:08:17.832Z,7.60
2022-07-25T09:10:50.663Z,6.57
2022-07-25T09:13:20.213Z,7.60
2022-07-25T09:15:51.306Z,7.63
2022-07-25T09:18:23.622Z,6.60
2022-07-25T09:20:51.633Z,7.60
2022-07-25T09:23:37.843Z,7.40
2022-07-25T09:26:15.221Z,7.03
2022-07-25T09:28:51.168Z,7.70
2022-07-25T09:31:21.288Z,7.70
2022-07-25T09:33:56.326Z,7.30
2022-07-25T09:36:23.690Z,7.30
2022-07-25T09:38:54.929Z,8.07
2022-07-25T09:41:22.771Z,7.00
2022-07-25T09:43:49.578Z,7.50
2022-07-25T09:46:16.698Z,8.00
2022-07-25T09:48:45.500Z,7.97
2022-07-25T09:51:12.296Z,7.40
2022-07-25T09:53:40.278Z,7.63
2022-07-25T09:56:08.503Z,7.97
2022-07-25T09:58:35.231Z,7.23
2022-07-25T10:01:06.180Z,7.60
2022-07-25T10:04:12.512Z,7.50
2022-07-25T10:06:49.461Z,7.60
2022-07-25T10:09:16.751Z,7.33
2022-07-25T10:12:03.446Z,8.33
2022-07-25T10:14:30.238Z,7.90
2022-07-25T10:16:57.076Z,7.10
2022-07-25T10:19:58.860Z,7.37
2022-07-25T10:22:59.814Z,8.40
2022-07-25T10:25:26.939Z,7.77
2022-07-25T10:28:03.664Z,7.97
2022-07-25T10:30:39.052Z,7.70
2022-07-25T10:33:18.003Z,8.27
2022-07-25T10:35:45.735Z,8.00
2022-07-25T10:38:12.542Z,8.00
2022-07-25T10:40:42.128Z,8.30
2022-07-25T10:43:13.762Z,8.30
2022-07-25T10:45:59.071Z,9.03
2022-07-25T10:48:28.679Z,8.10
2022-07-25T10:51:01.005Z,8.10
2022-07-25T10:53:48.642Z,7.50
2022-07-25T10:56:16.783Z,8.20
2022-07-25T10:58:57.814Z,8.80
2022-07-25T11:01:27.546Z,8.43
2022-07-25T11:03:56.773Z,9.13
2022-07-25T11:06:43.474Z,9.40
2022-07-25T11:09:19.860Z,7.80
2022-07-25T11:11:51.209Z,8.17
2022-07-25T11:14:17.867Z,8.00
2022-07-25T11:16:46.581Z,7.87
2022-07-25T11:19:18.498Z,7.77
2022-07-25T11:21:47.551Z,7.90
2022-07-25T11:24:14.748Z,7.90
2022-07-25T11:26:49.452Z,8.10
2022-07-25T11:29:26.858Z,7.37
2022-07-25T11:32:02.082Z,7.60
2022-07-25T11:34:34.840Z,6.80
2022-07-25T11:37:05.174Z,7.70
2022-07-25T11:39:34.495Z,8.07
2022-07-25T11:42:22.854Z,9.00
2022-07-25T11:44:52.747Z,7.70
2022-07-25T11:47:30.985Z,7.30
2022-07-25T11:50:00.028Z,8.13
2022-07-25T11:52:38.250Z,7.00
2022-07-25T11:55:13.394Z,8.23
2022-07-25T11:57:44.327Z,7.73
2022-07-25T12:00:17.796Z,8.37
2022-07-25T12:02:45.739Z,7.40
2022-07-25T12:05:15.192Z,7.80
2022-07-25T12:07:49.829Z,7.80
2022-07-25T12:10:24.858Z,8.20
2022-07-25T12:12:56.947Z,7.23
2022-07-25T12:15:36.347Z,7.93
2022-07-25T12:18:03.294Z,7.87
2022-07-25T12:20:34.989Z,6.97
2022-07-25T12:23:04.671Z,7.50
2022-07-25T12:25:32.148Z,7.17
2022-07-25T12:28:00.395Z,6.67
2022-07-25T12:30:28.548Z,6.67
2022-07-25T12:32:56.742Z,6.70
2022-07-25T12:35:23.829Z,6.20
2022-07-25T12:37:51.712Z,6.53
2022-07-25T12:40:19.233Z,5.23
2022-07-25T12:42:46.362Z,6.00
2022-07-25T12:45:14.677Z,5.50
2022-07-25T12:47:43.845Z,6.13
2022-07-25T12:50:10.598Z,5.63
2022-07-25T12:52:38.324Z,5.40
2022-07-25T12:55:06.834Z,5.90
2022-07-25T12:57:35.048Z,5.50
2022-07-25T13:00:02.305Z,5.50
2022-07-25T13:02:29.036Z,5.37
2022-07-25T13:04:55.740Z,5.20
2022-07-25T13:07:22.495Z,5.57
2022-07-25T13:09:49.169Z,5.60
2022-07-25T13:12:16.647Z,5.53
2022-07-25T13:14:43.459Z,5.50
2022-07-25T13:17:11.425Z,4.80
2022-07-25T13:19:38.122Z,5.30
2022-07-25T13:22:05.654Z,4.90
2022-07-25T13:24:36.221Z,4.93
2022-07-25T13:27:04.593Z,5.47
2022-07-25T13:29:31.423Z,4.80
2022-07-25T13:31:58.167Z,4.50
2022-07-25T13:34:24.865Z,4.43
2022-07-25T13:36:51.565Z,5.17
2022-07-25T13:39:18.485Z,4.70
2022-07-25T13:41:45.177Z,4.50
2022-07-25T13:44:13.584Z,4.63
2022-07-25T13:46:40.281Z,4.30
2022-07-25T13:49:07.282Z,4.00
2022-07-25T13:51:34.407Z,3.67
2022-07-25T13:54:02.008Z,4.10
2022-07-25T13:56:28.785Z,3.60
2022-07-25T13:58:55.519Z,4.07
2022-07-25T14:01:22.556Z,4.00
2022-07-25T14:03:49.291Z,3.60
2022-07-25T14:06:15.957Z,4.00
2022-07-25T14:08:43.131Z,3.77
2022-07-25T14:11:09.834Z,3.53
2022-07-25T14:13:37.437Z,2.83
2022-07-25T14:16:04.683Z,2.53
2022-07-25T14:18:32.387Z,3.00
2022-07-25T14:20:59.538Z,3.33
2022-07-25T14:23:29.871Z,3.00
2022-07-25T14:25:58.758Z,3.33
2022-07-25T14:28:25.701Z,2.73
2022-07-25T14:30:52.421Z,2.53
2022-07-25T14:33:19.163Z,2.60
2022-07-25T14:35:45.830Z,3.10
2022-07-25T14:38:12.586Z,2.50
2022-07-25T14:40:41.469Z,2.70
2022-07-25T14:43:08.447Z,2.70
2022-07-25T14:45:36.896Z,2.80
2022-07-25T14:48:06.025Z,2.60
2022-07-25T14:50:32.752Z,2.70
2022-07-25T14:52:59.443Z,2.90
2022-07-25T14:55:26.886Z,2.70
2022-07-25T14:57:53.649Z,3.30
2022-07-25T15:00:20.613Z,2.50
2022-07-25T15:02:48.771Z,3.10
2022-07-25T15:05:15.485Z,2.47
2022-07-25T15:07:42.258Z,2.50
2022-07-25T15:10:09.313Z,2.80
2022-07-25T15:12:36.362Z,2.73
2022-07-25T15:15:03.641Z,2.70
2022-07-25T15:17:30.324Z,2.40
2022-07-25T15:19:57.108Z,2.60
2022-07-25T15:22:23.867Z,2.70
2022-07-25T15:25:27.195Z,3.20
2022-07-25T15:27:38.319Z,2.47
2022-07-25T15:30:06.333Z,2.57
2022-07-25T15:32:33.104Z,3.03
2022-07-25T15:34:59.793Z,2.80
2022-07-25T15:37:28.002Z,2.80
2022-07-25T15:39:54.688Z,2.90
2022-07-25T15:42:24.477Z,2.77
2022-07-25T15:45:15.172Z,2.80
2022-07-25T15:47:40.730Z,2.87
2022-07-25T15:50:08.125Z,3.00
2022-07-25T15:52:35.045Z,2.93
2022-07-25T15:55:01.729Z,3.30
2022-07-25T15:57:28.520Z,3.67
2022-07-25T15:59:55.230Z,3.00
2022-07-25T16:02:21.946Z,3.00
2022-07-25T16:04:48.638Z,3.60
2022-07-25T16:07:15.351Z,3.83
2022-07-25T16:09:43.072Z,3.43
2022-07-25T16:12:11.049Z,3.83
2022-07-25T16:14:38.365Z,3.20
2022-07-25T16:17:05.927Z,3.37
2022-07-25T16:19:32.685Z,3.37
2022-07-25T16:21:59.793Z,3.13
2022-07-25T16:24:26.539Z,2.93
2022-07-25T16:26:54.050Z,2.80
2022-07-25T16:29:20.734Z,3.50
2022-07-25T16:31:47.908Z,2.97
2022-07-25T16:34:14.616Z,2.57
2022-07-25T16:36:41.421Z,2.60
2022-07-25T16:39:08.782Z,2.60
2022-07-25T16:41:35.708Z,2.80
2022-07-25T16:44:02.349Z,2.40
2022-07-25T16:46:29.055Z,2.80
2022-07-25T16:48:55.786Z,2.60
2022-07-25T16:51:22.565Z,2.23
2022-07-25T16:53:49.332Z,2.23
2022-07-25T16:56:17.198Z,2.97
2022-07-25T16:58:43.997Z,2.40
2022-07-25T17:01:11.333Z,2.53
2022-07-25T17:03:38.028Z,2.10
2022-07-25T17:06:05.616Z,2.63
2022-07-25T17:08:34.245Z,2.80
2022-07-25T17:11:01.184Z,2.57
2022-07-25T17:13:27.879Z,2.80
2022-07-25T17:15:54.639Z,2.23
2022-07-25T17:18:21.494Z,2.23
2022-07-25T17:20:48.353Z,2.60
2022-07-25T17:23:15.484Z,2.80
2022-07-25T17:25:44.324Z,2.27
2022-07-25T17:28:14.048Z,2.63
2022-07-25T17:30:40.996Z,2.60
2022-07-25T17:33:07.779Z,2.50
2022-07-25T17:35:34.475Z,2.43
2022-07-25T17:38:01.264Z,2.70
2022-07-25T17:40:28.055Z,2.70
2022-07-25T17:42:54.728Z,2.00
2022-07-25T17:45:21.515Z,2.30
2022-07-25T17:47:48.637Z,2.33
2022-07-25T17:50:16.828Z,2.23
2022-07-25T17:52:44.181Z,1.90
2022-07-25T17:55:12.056Z,2.20
2022-07-25T17:57:42.795Z,2.20
2022-07-25T18:00:11.185Z,2.60
2022-07-25T18:02:41.607Z,2.23
2022-07-25T18:05:08.704Z,2.37
2022-07-25T18:07:35.500Z,2.73
2022-07-25T18:10:03.659Z,2.63
2022-07-25T18:12:30.310Z,2.40
2022-07-25T18:14:56.990Z,2.57
2022-07-25T18:17:23.702Z,2.67
2022-07-25T18:19:50.375Z,2.50
2022-07-25T18:22:17.431Z,3.03
2022-07-25T18:24:44.156Z,2.40
2022-07-25T18:27:11.097Z,2.50
2022-07-25T18:29:38.729Z,2.80
2022-07-25T18:32:06.257Z,2.70
2022-07-25T18:34:33.046Z,2.30
2022-07-25T18:36:59.739Z,2.50
2022-07-25T18:39:26.777Z,2.47
2022-07-25T18:41:53.436Z,2.43
2022-07-25T18:44:20.227Z,2.60
2022-07-25T18:46:47.221Z,2.83
2022-07-25T18:49:14.082Z,2.77
2022-07-25T18:51:40.871Z,2.37
2022-07-25T18:54:07.871Z,2.77
2022-07-25T18:56:34.839Z,2.70
2022-07-25T18:59:01.517Z,2.87
2022-07-25T19:01:29.389Z,2.50
2022-07-25T19:03:56.554Z,2.67
2022-07-25T19:06:23.550Z,2.27
2022-07-25T19:08:50.241Z,2.50
2022-07-25T19:11:16.923Z,1.60
2022-07-25T19:13:51.502Z,2.13
2022-07-25T19:16:18.794Z,1.43
2022-07-25T19:18:45.653Z,1.63
2022-07-25T19:21:12.344Z,1.87
2022-07-25T19:23:39.034Z,1.83
2022-07-25T19:26:06.179Z,2.00
2022-07-25T19:28:32.894Z,1.37
2022-07-25T19:30:59.677Z,1.70
2022-07-25T19:33:34.483Z,1.63
2022-07-25T19:36:03.915Z,1.20
2022-07-25T19:38:30.867Z,1.73
2022-07-25T19:40:57.658Z,2.10
2022-07-25T19:43:24.328Z,1.43
2022-07-25T19:45:51.207Z,1.30
2022-07-25T19:48:17.964Z,2.10
2022-07-25T19:50:45.564Z,1.57
2022-07-25T19:53:12.256Z,1.57
2022-07-25T19:55:38.922Z,1.57
2022-07-25T19:58:08.260Z,2.00
2022-07-25T20:00:35.085Z,1.60
2022-07-25T20:03:01.816Z,1.70
2022-07-25T20:05:28.564Z,1.50
2022-07-25T20:07:55.243Z,1.10
2022-07-25T20:10:23.607Z,1.37
2022-07-25T20:12:50.308Z,1.57
2022-07-25T20:15:17.069Z,1.57
2022-07-25T20:17:43.980Z,1.10
2022-07-25T20:20:11.569Z,1.40
2022-07-25T20:22:38.310Z,1.10
2022-07-25T20:25:10.458Z,1.03
2022-07-25T20:27:37.527Z,1.13
2022-07-25T20:30:07.625Z,0.90
2022-07-25T20:32:34.567Z,0.77
2022-07-25T20:35:01.651Z,1.50
2022-07-25T20:37:28.406Z,1.00
2022-07-25T20:39:55.348Z,1.10
2022-07-25T20:42:22.226Z,1.13
2022-07-25T20:44:49.058Z,1.37
2022-07-25T20:47:16.958Z,1.47
2022-07-25T20:49:43.848Z,1.50
2022-07-25T20:52:10.564Z,1.10
2022-07-25T20:54:37.215Z,1.10
2022-07-25T20:57:04.358Z,1.30
2022-07-25T20:59:32.022Z,1.20
2022-07-25T21:01:59.017Z,1.13
2022-07-25T21:04:25.963Z,0.90
2022-07-25T21:06:52.903Z,1.20
2022-07-25T21:09:23.237Z,1.27
2022-07-25T21:11:49.977Z,0.80
2022-07-25T21:14:16.748Z,1.10
2022-07-25T21:16:43.740Z,1.00
2022-07-25T21:19:10.653Z,1.10
2022-07-25T21:21:37.782Z,1.23
2022-07-25T21:24:06.471Z,1.00
2022-07-25T21:26:33.738Z,0.90
2022-07-25T21:29:00.443Z,1.17
2022-07-25T21:31:27.454Z,1.13
2022-07-25T21:33:54.179Z,1.30
2022-07-25T21:36:20.864Z,1.00
2022-07-25T21:38:47.701Z,1.30
2022-07-25T21:41:14.758Z,1.00
2022-07-25T21:43:41.518Z,1.10
2022-07-25T21:46:08.287Z,0.90
2022-07-25T21:48:54.511Z,1.00
2022-07-25T21:51:23.260Z,1.63
2022-07-25T21:53:54.173Z,0.87
2022-07-25T21:56:20.918Z,1.00
2022-07-25T21:58:47.584Z,0.97
2022-07-25T22:01:14.311Z,1.00
2022-07-25T22:03:41.446Z,1.23
2022-07-25T22:06:08.325Z,1.00
2022-07-25T22:08:35.076Z,0.90
2022-07-25T22:11:15.773Z,1.30
2022-07-25T22:13:43.368Z,0.97
2022-07-25T22:16:10.195Z,1.20
2022-07-25T22:18:36.926Z,1.07
2022-07-25T22:21:04.246Z,1.00
2022-07-25T22:23:30.915Z,1.57
2022-07-25T22:25:57.583Z,0.80
2022-07-25T22:28:24.302Z,1.13
2022-07-25T22:30:50.983Z,0.83
2022-07-25T22:33:17.754Z,0.97
2022-07-25T22:35:44.422Z,0.70
2022-07-25T22:38:11.427Z,0.80
2022-07-25T22:40:38.089Z,0.93
2022-07-25T22:43:04.774Z,0.80
2022-07-25T22:45:31.501Z,0.90
2022-07-25T22:47:58.228Z,1.10
2022-07-25T22:50:25.410Z,0.87
2022-07-25T22:52:52.073Z,1.20
2022-07-25T22:55:18.849Z,1.30
2022-07-25T22:57:45.569Z,1.30
2022-07-25T23:00:12.757Z,0.80
2022-07-25T23:02:40.049Z,0.93
2022-07-25T23:05:10.519Z,1.37
2022-07-25T23:07:38.226Z,1.43
2022-07-25T23:10:05.701Z,1.00
2022-07-25T23:12:32.355Z,1.17
2022-07-25T23:14:59.034Z,1.57
2022-07-25T23:17:25.745Z,1.10
2022-07-25T23:19:54.676Z,0.93
2022-07-25T23:22:23.188Z,1.10
2022-07-25T23:24:50.004Z,1.10
2022-07-25T23:27:16.974Z,1.30
2022-07-25T23:29:43.879Z,1.30
2022-07-25T23:32:10.572Z,1.03
2022-07-25T23:34:37.383Z,1.47
2022-07-25T23:37:04.455Z,1.43
2022-07-25T23:39:31.818Z,1.33
2022-07-25T23:41:59.681Z,1.07
2022-07-25T23:44:26.978Z,1.57
2022-07-25T23:46:56.640Z,1.10
2022-07-25T23:49:24.287Z,1.17
2022-07-25T23:51:51.049Z,1.10
2022-07-25T23:54:17.758Z,1.00
2022-07-25T23:56:44.402Z,1.10
2022-07-25T23:59:11.469Z,1.10
